Time;durP1;ratioP1;P1;durP2;ratioP2;P2;SDS_P1;SDS_P2;PMS_P1;PMS_P2;Temp;Humidity;BMP_temperature;BMP_pressure;BME280_temperature;BME280_humidity;BME280_pressure;Samples;Min_cycle;Max_cycle;Signal;HPM_P1;HPM_P2
2021/12/21 00:02:18;;;;;;;2.17;1.93;;;2.10;99.90;;;;;;4984916;28;20050;-73
2021/12/21 00:04:44;;;;;;;2.73;2.33;;;2.10;99.90;;;;;;4984296;28;20055;-73
2021/12/21 00:07:09;;;;;;;6.03;3.07;;;2.10;99.90;;;;;;4967094;28;20060;-73
2021/12/21 00:09:35;;;;;;;5.17;2.40;;;2.10;99.90;;;;;;4967162;28;20508;-73
2021/12/21 00:12:01;;;;;;;3.13;1.57;;;2.10;99.90;;;;;;4984413;28;20567;-73
2021/12/21 00:14:40;;;;;;;2.23;2.13;;;2.10;99.90;;;;;;4966464;28;20076;-75
2021/12/21 00:17:19;;;;;;;2.60;2.40;;;2.00;99.90;;;;;;4984468;28;20125;-73
2021/12/21 00:20:11;;;;;;;1.90;1.80;;;2.10;99.90;;;;;;4984415;28;20057;-73
2021/12/21 00:23:18;;;;;;;6.30;2.17;;;2.10;99.90;;;;;;4966858;28;20061;-73
2021/12/21 00:25:37;;;;;;;6.07;2.80;;;2.10;99.90;;;;;;4966860;28;20046;-74
2021/12/21 00:28:03;;;;;;;5.10;1.93;;;2.10;99.90;;;;;;4983752;28;20069;-73
2021/12/21 00:30:29;;;;;;;5.23;2.53;;;2.00;99.90;;;;;;4982174;28;20095;-74
2021/12/21 00:32:55;;;;;;;2.87;2.27;;;2.00;99.90;;;;;;4985976;28;20054;-74
2021/12/21 00:35:20;;;;;;;7.40;3.37;;;2.00;99.90;;;;;;5003780;28;20056;-74
2021/12/21 00:37:47;;;;;;;3.30;2.67;;;2.00;99.90;;;;;;4986037;28;20046;-73
2021/12/21 00:40:13;;;;;;;4.23;1.73;;;2.00;99.90;;;;;;5003057;28;20046;-73
2021/12/21 00:42:38;;;;;;;2.33;2.13;;;2.00;99.90;;;;;;5002263;28;20444;-73
2021/12/21 00:45:05;;;;;;;2.03;1.93;;;1.90;99.90;;;;;;5002257;28;20463;-73
2021/12/21 00:47:33;;;;;;;1.23;1.20;;;2.00;99.90;;;;;;4986037;28;20132;-73
2021/12/21 00:50:01;;;;;;;3.00;1.97;;;1.90;99.90;;;;;;5002798;28;20085;-73
2021/12/21 00:52:27;;;;;;;2.57;2.03;;;1.90;99.90;;;;;;5003376;28;20041;-73
2021/12/21 00:54:52;;;;;;;1.60;1.37;;;1.90;99.90;;;;;;5002778;28;20052;-73
2021/12/21 00:57:18;;;;;;;2.13;1.50;;;1.90;99.90;;;;;;4986105;28;20100;-73
2021/12/21 00:59:44;;;;;;;5.27;2.40;;;1.90;99.90;;;;;;5002289;28;20416;-73
2021/12/21 01:02:11;;;;;;;4.23;2.70;;;1.90;99.90;;;;;;5002921;28;20046;-73
2021/12/21 01:04:42;;;;;;;2.73;1.27;;;1.90;99.90;;;;;;4985410;28;20050;-73
2021/12/21 01:12:48;;;;;;;2.93;2.73;;;1.90;99.90;;;;;;4985357;28;20124;-74
2021/12/21 01:15:59;;;;;;;2.23;2.07;;;1.80;99.90;;;;;;4984355;28;20046;-73
2021/12/21 01:18:14;;;;;;;2.03;1.83;;;1.80;99.90;;;;;;4981980;28;20133;-73
2021/12/21 01:20:47;;;;;;;;;;;1.80;99.90;;;;;;4985513;28;20053;-73
2021/12/21 01:25:47;;;;;;;1.87;1.70;;;1.80;99.90;;;;;;5002820;28;20056;-73
2021/12/21 01:28:27;;;;;;;2.63;2.43;;;1.80;99.90;;;;;;5002011;28;20050;-73
2021/12/21 01:36:41;;;;;;;4.63;3.30;;;1.80;99.90;;;;;;4985296;28;20113;-73
2021/12/21 01:42:03;;;;;;;1.57;1.47;;;1.80;99.90;;;;;;4956051;28;20461;-73
2021/12/21 01:49:36;;;;;;;1.40;1.30;;;1.70;99.90;;;;;;4948326;28;20034;-73
2021/12/21 01:50:07;;;;;;;14.73;3.47;;;1.70;99.90;;;;;;4967845;28;20074;-73
2021/12/21 01:52:33;;;;;;;1.47;1.37;;;1.70;99.90;;;;;;4965001;28;20309;-73
2021/12/21 01:54:58;;;;;;;1.97;1.40;;;1.70;99.90;;;;;;4982585;28;20050;-74
2021/12/21 01:57:24;;;;;;;1.50;1.40;;;1.70;99.90;;;;;;4965660;28;20069;-73
2021/12/21 01:59:50;;;;;;;3.20;1.37;;;1.70;99.90;;;;;;4982204;28;20050;-73
2021/12/21 02:02:19;;;;;;;1.23;1.23;;;1.70;99.90;;;;;;4982926;28;20050;-73
2021/12/21 02:04:44;;;;;;;1.93;1.80;;;1.70;99.90;;;;;;4982373;28;20424;-73
2021/12/21 02:07:11;;;;;;;2.17;1.73;;;1.70;99.90;;;;;;4982082;28;20054;-73
2021/12/21 02:09:37;;;;;;;13.93;2.50;;;1.70;99.90;;;;;;4982307;28;20108;-73
2021/12/21 02:12:09;;;;;;;3.03;2.03;;;1.70;99.90;;;;;;4981831;28;20409;-73
2021/12/21 02:14:36;;;;;;;1.73;1.63;;;1.70;99.90;;;;;;4981491;28;20050;-73
2021/12/21 02:20:20;;;;;;;1.83;1.70;;;1.70;99.90;;;;;;4982519;28;20054;-73
2021/12/21 02:22:55;;;;;;;8.23;1.90;;;1.70;99.90;;;;;;4965323;28;20047;-73
2021/12/21 02:27:58;;;;;;;2.40;2.30;;;1.60;99.90;;;;;;4964786;28;20093;-73
2021/12/21 02:30:24;;;;;;;1.63;1.53;;;1.70;99.90;;;;;;4997291;28;20342;-74
2021/12/21 02:32:50;;;;;;;2.30;2.10;;;1.60;99.90;;;;;;5002292;28;20049;-73
2021/12/21 02:35:16;;;;;;;1.50;1.40;;;1.60;99.90;;;;;;4984745;28;20054;-73
2021/12/21 02:37:41;;;;;;;1.63;1.37;;;1.60;99.90;;;;;;4983951;28;20111;-73
2021/12/21 02:40:08;;;;;;;3.23;1.97;;;1.60;99.90;;;;;;5001137;28;20532;-73
2021/12/21 02:42:34;;;;;;;2.03;1.73;;;1.60;99.90;;;;;;5001924;28;20053;-73
2021/12/21 02:44:59;;;;;;;0.67;0.67;;;1.60;99.90;;;;;;5000964;28;20081;-73
2021/12/21 02:47:25;;;;;;;1.30;1.30;;;1.60;99.90;;;;;;4983721;28;20415;-74
2021/12/21 02:49:51;;;;;;;1.93;1.83;;;1.60;99.90;;;;;;5001327;28;20696;-76
2021/12/21 02:52:16;;;;;;;2.10;2.00;;;1.60;99.90;;;;;;5001802;28;20042;-73
2021/12/21 02:54:42;;;;;;;2.73;1.97;;;1.50;99.90;;;;;;4984391;28;20481;-73
2021/12/21 02:57:07;;;;;;;3.30;1.93;;;1.50;99.90;;;;;;5001131;28;20037;-73
2021/12/21 02:59:33;;;;;;;2.10;1.57;;;1.50;99.90;;;;;;4983012;28;20627;-74
2021/12/21 03:01:59;;;;;;;1.27;1.17;;;1.50;99.90;;;;;;5001390;28;20389;-73
2021/12/21 03:04:25;;;;;;;2.77;1.93;;;1.50;99.90;;;;;;5001707;28;20920;-74
2021/12/21 03:07:24;;;;;;;2.37;2.17;;;1.50;99.90;;;;;;4970799;28;20471;-75
2021/12/21 03:09:57;;;;;;;2.00;1.73;;;1.50;99.90;;;;;;5004982;28;20119;-73
2021/12/21 03:14:51;;;;;;;1.07;1.00;;;1.50;99.90;;;;;;4986978;28;20085;-73
2021/12/21 03:17:17;;;;;;;1.37;1.27;;;1.50;99.90;;;;;;4988161;28;20113;-73
2021/12/21 03:19:43;;;;;;;1.50;1.40;;;1.50;99.90;;;;;;5005183;28;20480;-73
2021/12/21 03:22:09;;;;;;;5.10;3.67;;;1.40;99.90;;;;;;5004558;28;20053;-73
2021/12/21 03:24:35;;;;;;;3.27;3.07;;;1.40;99.90;;;;;;4987157;28;20045;-73
2021/12/21 03:27:02;;;;;;;2.60;2.40;;;1.40;99.90;;;;;;4987097;28;20112;-74
2021/12/21 03:29:27;;;;;;;6.47;2.93;;;1.40;99.90;;;;;;4995413;28;20097;-73
2021/12/21 03:31:53;;;;;;;1.80;1.40;;;1.40;99.90;;;;;;4984881;28;20039;-73
2021/12/21 03:34:19;;;;;;;14.70;2.77;;;1.40;99.90;;;;;;4985476;28;20504;-73
2021/12/21 03:36:44;;;;;;;1.57;1.57;;;1.40;99.90;;;;;;4985209;28;20409;-73
2021/12/21 03:39:17;;;;;;;2.00;1.70;;;1.30;99.90;;;;;;4984678;28;20054;-73
2021/12/21 03:41:46;;;;;;;;;;;1.30;99.90;;;;;;4985617;28;20048;-74
2021/12/21 03:44:13;;;;;;;0.80;0.80;;;1.30;99.90;;;;;;4966694;28;19980;-73
2021/12/21 03:46:51;;;;;;;1.90;1.80;;;1.30;99.90;;;;;;4985243;28;20042;-73
2021/12/21 03:52:24;;;;;;;1.73;1.63;;;1.30;99.90;;;;;;4967171;28;20058;-74
2021/12/21 03:54:53;;;;;;;1.93;1.83;;;1.20;99.90;;;;;;4967478;28;20074;-73
2021/12/21 03:57:19;;;;;;;6.73;3.00;;;1.30;99.90;;;;;;4967510;28;20051;-73
2021/12/21 03:59:47;;;;;;;4.77;2.87;;;1.20;99.90;;;;;;4984382;28;20382;-73
2021/12/21 04:02:13;;;;;;;1.60;1.50;;;1.20;99.90;;;;;;4967468;28;20061;-73
2021/12/21 04:04:40;;;;;;;1.33;1.23;;;1.20;99.90;;;;;;4967107;28;20401;-73
2021/12/21 04:07:06;;;;;;;5.17;1.80;;;1.20;99.90;;;;;;4983929;28;20134;-73
2021/12/21 04:09:32;;;;;;;1.77;1.67;;;1.20;99.90;;;;;;4984408;28;20137;-73
2021/12/21 04:11:57;;;;;;;2.23;2.07;;;1.20;99.90;;;;;;4967168;28;20069;-74
2021/12/21 04:14:23;;;;;;;1.60;1.40;;;1.20;99.90;;;;;;4966033;28;20121;-74
2021/12/21 04:16:49;;;;;;;1.83;1.73;;;1.20;99.90;;;;;;4967063;28;20046;-73
2021/12/21 04:19:17;;;;;;;3.97;2.23;;;1.10;99.90;;;;;;4966816;28;20077;-73
2021/12/21 04:21:42;;;;;;;1.73;1.63;;;1.20;99.90;;;;;;4984127;28;20050;-73
2021/12/21 04:24:08;;;;;;;2.57;2.37;;;1.10;99.90;;;;;;4966598;28;20536;-73
2021/12/21 04:26:34;;;;;;;1.93;1.80;;;1.10;99.90;;;;;;4966328;28;20057;-73
2021/12/21 04:29:00;;;;;;;3.47;2.20;;;1.10;99.90;;;;;;4987595;28;20052;-73
2021/12/21 04:31:25;;;;;;;1.53;1.43;;;1.10;99.90;;;;;;4986430;28;20400;-74
2021/12/21 04:33:51;;;;;;;4.20;2.03;;;1.10;99.90;;;;;;5003233;28;20249;-75
2021/12/21 04:36:16;;;;;;;3.10;1.43;;;1.10;99.90;;;;;;5003678;28;20527;-73
2021/12/21 04:38:46;;;;;;;3.77;2.17;;;1.10;99.90;;;;;;4985819;28;20334;-73
2021/12/21 04:41:17;;;;;;;1.77;1.63;;;1.10;99.90;;;;;;5003283;28;20105;-73
2021/12/21 04:43:43;;;;;;;1.60;1.53;;;1.00;99.90;;;;;;5003055;28;20147;-75
2021/12/21 04:46:10;;;;;;;3.90;2.73;;;1.00;99.90;;;;;;4985923;28;20049;-73
2021/12/21 04:48:36;;;;;;;2.30;2.10;;;1.00;99.90;;;;;;4986113;28;20107;-73
2021/12/21 04:51:02;;;;;;;1.90;1.80;;;1.00;99.90;;;;;;4984976;28;20129;-73
2021/12/21 04:53:27;;;;;;;5.50;1.87;;;1.00;99.90;;;;;;4985885;28;20474;-74
2021/12/21 04:55:53;;;;;;;2.37;2.10;;;1.00;99.90;;;;;;4985509;28;20045;-74
2021/12/21 04:58:19;;;;;;;1.47;1.33;;;1.00;99.90;;;;;;4986113;28;20056;-73
2021/12/21 05:00:46;;;;;;;0.83;0.73;;;1.00;99.90;;;;;;5002089;28;20073;-73
2021/12/21 05:03:11;;;;;;;2.03;1.63;;;0.90;99.90;;;;;;4984586;28;20058;-73
2021/12/21 05:05:37;;;;;;;2.77;2.13;;;0.90;99.90;;;;;;5003509;28;20060;-73
2021/12/21 05:08:09;;;;;;;1.90;1.80;;;0.90;99.90;;;;;;5003219;28;20061;-74
2021/12/21 05:10:52;;;;;;;1.57;1.43;;;0.90;99.90;;;;;;5003129;28;20068;-73
2021/12/21 05:13:21;;;;;;;2.63;2.07;;;0.90;99.90;;;;;;4985761;28;20128;-73
2021/12/21 05:15:46;;;;;;;4.57;2.20;;;0.90;99.90;;;;;;4985049;28;20076;-74
2021/12/21 05:18:13;;;;;;;2.17;2.07;;;0.90;99.90;;;;;;5002525;28;20476;-73
2021/12/21 05:20:39;;;;;;;11.10;2.93;;;0.90;99.90;;;;;;5002804;28;20056;-73
2021/12/21 05:23:06;;;;;;;3.33;1.67;;;0.90;99.90;;;;;;4985019;28;20135;-74
2021/12/21 05:25:32;;;;;;;4.60;2.53;;;0.90;99.90;;;;;;5002647;28;20041;-74
2021/12/21 05:27:57;;;;;;;1.77;1.67;;;0.90;99.90;;;;;;5001278;28;20046;-74
2021/12/21 05:30:23;;;;;;;1.60;1.47;;;0.90;99.90;;;;;;4985433;28;20046;-74
2021/12/21 05:32:50;;;;;;;5.60;1.93;;;0.90;99.90;;;;;;4966271;28;20042;-73
2021/12/21 05:35:16;;;;;;;4.77;2.70;;;0.90;99.90;;;;;;4966313;28;20050;-73
2021/12/21 05:37:42;;;;;;;4.60;1.83;;;0.90;99.90;;;;;;4982420;28;20042;-73
2021/12/21 05:40:14;;;;;;;2.50;2.27;;;0.80;99.90;;;;;;4982273;28;20046;-73
2021/12/21 05:42:40;;;;;;;1.75;1.60;;;0.90;99.90;;;;;;4982455;28;20046;-73
2021/12/21 05:45:07;;;;;;;1.67;1.57;;;0.80;99.90;;;;;;4981575;28;20046;-73
2021/12/21 05:47:33;;;;;;;5.00;2.37;;;0.80;99.90;;;;;;4965715;28;20065;-74
2021/12/21 05:49:58;;;;;;;2.17;1.87;;;0.80;99.90;;;;;;4965162;28;20054;-74
2021/12/21 05:52:24;;;;;;;8.37;2.27;;;0.80;99.90;;;;;;4982829;28;20037;-74
2021/12/21 05:54:49;;;;;;;2.10;1.97;;;0.80;99.90;;;;;;4982691;28;20571;-73
2021/12/21 05:57:15;;;;;;;1.30;1.27;;;0.80;99.90;;;;;;4965278;28;20053;-73
2021/12/21 05:59:41;;;;;;;3.47;3.23;;;0.80;99.90;;;;;;4981672;28;20085;-74
2021/12/21 06:02:07;;;;;;;2.20;2.00;;;0.80;99.90;;;;;;4981776;28;20077;-74
2021/12/21 06:04:33;;;;;;;2.97;2.70;;;0.80;99.90;;;;;;4982296;28;20169;-74
2021/12/21 06:06:58;;;;;;;4.67;2.17;;;0.80;99.90;;;;;;4982169;28;20198;-73
2021/12/21 06:09:25;;;;;;;2.90;1.70;;;0.80;99.90;;;;;;4982471;28;20409;-73
2021/12/21 06:12:05;;;;;;;3.30;3.00;;;0.80;99.90;;;;;;4964240;28;20544;-75
2021/12/21 06:15:06;;;;;;;3.03;2.67;;;0.70;99.90;;;;;;4981676;28;20039;-73
2021/12/21 06:25:58;;;;;;;2.20;2.07;;;0.70;99.90;;;;;;4965121;28;20058;-74
2021/12/21 06:28:24;;;;;;;4.93;2.17;;;0.70;99.90;;;;;;4981643;28;20054;-76
2021/12/21 06:30:50;;;;;;;6.90;3.33;;;0.70;99.90;;;;;;5001698;28;20169;-74
2021/12/21 06:33:17;;;;;;;2.40;1.70;;;0.70;99.90;;;;;;5002164;28;20386;-73
2021/12/21 06:35:42;;;;;;;5.73;2.77;;;0.70;99.90;;;;;;5001735;28;20048;-74
2021/12/21 06:38:08;;;;;;;3.67;2.57;;;0.70;99.90;;;;;;5001449;28;20141;-74
2021/12/21 06:40:34;;;;;;;4.73;2.40;;;0.70;99.90;;;;;;5005370;28;20081;-74
2021/12/21 06:43:02;;;;;;;2.87;2.63;;;0.70;99.90;;;;;;5005465;28;20100;-74
2021/12/21 06:51:16;;;;;;;4.23;2.13;;;0.60;99.90;;;;;;5005006;28;20111;-74
2021/12/21 06:53:45;;;;;;;3.88;2.40;;;0.60;99.90;;;;;;5005350;28;20034;-74
2021/12/21 06:56:12;;;;;;;4.17;2.30;;;0.60;99.90;;;;;;5005382;28;20038;-74
2021/12/21 06:58:39;;;;;;;2.80;2.40;;;0.60;99.90;;;;;;4987189;28;20054;-74
2021/12/21 07:01:05;;;;;;;11.23;2.37;;;0.60;99.90;;;;;;5005071;28;20053;-74
2021/12/21 07:03:31;;;;;;;6.43;3.20;;;0.60;99.90;;;;;;4986523;28;20065;-74
2021/12/21 07:06:00;;;;;;;2.13;2.00;;;0.60;99.90;;;;;;4984361;28;20054;-75
2021/12/21 07:08:28;;;;;;;2.47;1.80;;;0.60;99.90;;;;;;4953608;28;20138;-75
2021/12/21 07:11:09;;;;;;;2.33;2.13;;;0.60;99.90;;;;;;4973618;28;20078;-77
2021/12/21 07:19:03;;;;;;;2.33;2.13;;;0.50;99.90;;;;;;4965941;28;20058;-74
2021/12/21 07:21:29;;;;;;;1.63;1.53;;;0.50;99.90;;;;;;4970588;28;20058;-74
2021/12/21 07:23:54;;;;;;;1.70;1.60;;;0.50;99.90;;;;;;4967007;28;20457;-74
2021/12/21 07:26:20;;;;;;;2.77;1.77;;;0.50;99.90;;;;;;4970836;28;20583;-77
2021/12/21 07:28:46;;;;;;;4.07;3.37;;;0.50;99.90;;;;;;4951654;28;20395;-75
2021/12/21 07:31:11;;;;;;;1.77;1.07;;;0.50;99.90;;;;;;4979457;28;20474;-75
2021/12/21 07:33:37;;;;;;;1.67;1.57;;;0.50;99.90;;;;;;4962874;28;20034;-75
2021/12/21 07:36:03;;;;;;;1.33;1.23;;;0.50;99.90;;;;;;4983204;28;20042;-74
2021/12/21 07:38:30;;;;;;;3.00;2.67;;;0.50;99.90;;;;;;4985447;28;20085;-74
2021/12/21 07:41:03;;;;;;;4.27;2.33;;;0.50;99.90;;;;;;4986656;28;20730;-75
2021/12/21 07:43:29;;;;;;;2.38;1.40;;;0.50;99.90;;;;;;4984194;28;20045;-75
2021/12/21 07:45:55;;;;;;;5.43;2.20;;;0.40;99.90;;;;;;4984637;28;20042;-74
2021/12/21 07:48:21;;;;;;;2.83;2.33;;;0.40;99.90;;;;;;4988620;28;20065;-74
2021/12/21 07:50:48;;;;;;;2.93;2.47;;;0.40;99.90;;;;;;4967020;28;20453;-74
2021/12/21 07:53:15;;;;;;;1.83;1.73;;;0.40;99.90;;;;;;4993153;28;20039;-73
2021/12/21 07:55:41;;;;;;;3.33;1.37;;;0.40;99.90;;;;;;4987977;28;20057;-73
2021/12/21 07:58:07;;;;;;;2.27;2.07;;;0.40;99.90;;;;;;4964710;28;20089;-73
2021/12/21 08:00:33;;;;;;;4.10;2.00;;;0.40;99.90;;;;;;4972356;28;20034;-71
2021/12/21 08:02:58;;;;;;;2.40;2.17;;;0.40;99.90;;;;;;4971326;28;20219;-72
2021/12/21 08:05:24;;;;;;;7.90;2.47;;;0.40;99.90;;;;;;4952534;28;20054;-71
2021/12/21 08:07:57;;;;;;;3.13;2.10;;;0.40;99.90;;;;;;4969837;28;20045;-73
2021/12/21 08:10:29;;;;;;;1.03;1.00;;;0.40;99.90;;;;;;4963328;28;20057;-73
2021/12/21 08:12:56;;;;;;;1.48;1.20;;;0.40;99.90;;;;;;4981842;28;20038;-72
2021/12/21 08:15:23;;;;;;;3.40;2.83;;;0.40;99.90;;;;;;4967656;28;20043;-74
2021/12/21 08:17:49;;;;;;;4.57;2.00;;;0.40;99.90;;;;;;4981667;28;20045;-74
2021/12/21 08:20:14;;;;;;;4.87;1.97;;;0.40;99.90;;;;;;4959650;28;20046;-75
2021/12/21 08:22:40;;;;;;;4.20;3.53;;;0.40;99.90;;;;;;4983219;28;20387;-75
2021/12/21 08:25:06;;;;;;;1.37;1.27;;;0.40;99.90;;;;;;4973187;28;20133;-75
2021/12/21 08:27:32;;;;;;;7.17;2.27;;;0.40;99.90;;;;;;4973457;28;20066;-75
2021/12/21 08:29:58;;;;;;;3.43;1.90;;;0.40;99.90;;;;;;4960381;28;20675;-74
2021/12/21 08:32:23;;;;;;;3.63;1.70;;;0.40;99.90;;;;;;4978981;28;20051;-74
2021/12/21 08:34:49;;;;;;;2.63;2.43;;;0.40;99.90;;;;;;4980138;28;20100;-73
2021/12/21 08:37:14;;;;;;;2.60;2.47;;;0.40;99.90;;;;;;4964519;28;20038;-73
2021/12/21 08:39:40;;;;;;;2.20;1.97;;;0.40;99.90;;;;;;4981927;28;20061;-73
2021/12/21 08:42:11;;;;;;;1.07;1.07;;;0.40;99.90;;;;;;4974770;28;20050;-75
2021/12/21 08:44:37;;;;;;;2.70;2.60;;;0.40;99.90;;;;;;4980334;28;20049;-75
2021/12/21 08:47:04;;;;;;;3.03;2.27;;;0.40;99.90;;;;;;4954860;28;20066;-76
2021/12/21 08:49:29;;;;;;;5.03;2.40;;;0.40;99.90;;;;;;4979332;28;20118;-75
2021/12/21 08:51:56;;;;;;;9.67;6.97;;;0.40;99.90;;;;;;4979817;28;20173;-74
2021/12/21 08:54:21;;;;;;;6.17;5.57;;;0.40;99.90;;;;;;4979200;28;20481;-74
2021/12/21 08:56:48;;;;;;;3.93;2.97;;;0.40;99.90;;;;;;4960293;28;20104;-74
2021/12/21 08:59:15;;;;;;;3.67;3.37;;;0.40;99.90;;;;;;4959591;28;20056;-74
2021/12/21 09:01:42;;;;;;;3.40;3.20;;;0.40;99.90;;;;;;4955966;28;20283;-74
2021/12/21 09:04:07;;;;;;;3.07;2.57;;;0.50;99.90;;;;;;4975205;28;20046;-74
2021/12/21 09:06:33;;;;;;;2.63;2.43;;;0.50;99.90;;;;;;4975520;28;20055;-74
2021/12/21 09:08:59;;;;;;;3.83;3.17;;;0.50;99.90;;;;;;4973504;28;20604;-75
2021/12/21 09:11:24;;;;;;;5.00;3.77;;;0.50;99.90;;;;;;4979053;28;20609;-75
2021/12/21 09:13:50;;;;;;;6.43;3.07;;;0.50;99.90;;;;;;4981583;28;20117;-75
2021/12/21 09:16:17;;;;;;;1.77;1.63;;;0.50;99.90;;;;;;4982673;28;20110;-75
2021/12/21 09:18:43;;;;;;;2.53;2.33;;;0.60;99.90;;;;;;4983314;28;20045;-75
2021/12/21 09:21:09;;;;;;;2.30;2.10;;;0.60;99.90;;;;;;4969842;28;20047;-75
2021/12/21 09:23:35;;;;;;;6.40;2.73;;;0.60;99.90;;;;;;4962655;28;20181;-75
2021/12/21 09:26:00;;;;;;;5.50;2.23;;;0.60;99.90;;;;;;4982575;28;20042;-75
2021/12/21 09:28:26;;;;;;;4.43;1.77;;;0.60;99.90;;;;;;4982438;28;20049;-75
2021/12/21 09:30:51;;;;;;;1.83;1.73;;;0.60;99.90;;;;;;4971454;28;20065;-75
2021/12/21 09:33:18;;;;;;;3.97;2.20;;;0.60;99.90;;;;;;4964388;28;20093;-74
2021/12/21 09:35:43;;;;;;;2.50;2.33;;;0.70;99.90;;;;;;4970390;28;20046;-74
2021/12/21 09:38:09;;;;;;;4.30;3.63;;;0.70;99.90;;;;;;4982186;28;20092;-74
2021/12/21 09:40:39;;;;;;;3.87;2.77;;;0.70;99.90;;;;;;4982746;28;20057;-74
2021/12/21 09:43:09;;;;;;;3.87;3.13;;;0.70;99.90;;;;;;4959184;28;20043;-75
2021/12/21 09:45:35;;;;;;;3.90;3.47;;;0.80;99.90;;;;;;4980011;28;20408;-74
2021/12/21 09:48:00;;;;;;;3.23;2.93;;;0.80;99.90;;;;;;4964850;28;20480;-74
2021/12/21 09:50:26;;;;;;;2.80;2.67;;;0.80;99.90;;;;;;4981027;28;20117;-79
2021/12/21 09:52:54;;;;;;;3.40;2.87;;;0.80;99.90;;;;;;4980406;28;20122;-80
2021/12/21 09:55:20;;;;;;;4.13;3.33;;;0.80;99.90;;;;;;4973358;28;20066;-79
2021/12/21 09:57:47;;;;;;;9.07;4.00;;;0.90;99.90;;;;;;4971978;28;20045;-79
2021/12/21 10:00:18;;;;;;;2.37;2.20;;;0.90;99.90;;;;;;4953974;28;20128;-79
2021/12/21 10:02:44;;;;;;;3.13;2.20;;;0.90;99.90;;;;;;4974804;28;20054;-80
2021/12/21 10:05:14;;;;;;;7.70;3.47;;;0.90;99.90;;;;;;4970243;28;20046;-76
2021/12/21 10:07:40;;;;;;;2.87;2.40;;;0.90;99.90;;;;;;4961057;28;20050;-75
2021/12/21 10:10:15;;;;;;;8.33;3.57;;;0.90;99.90;;;;;;4972333;28;20052;-75
2021/12/21 10:12:43;;;;;;;8.17;4.40;;;0.90;99.90;;;;;;4952703;28;20618;-75
2021/12/21 10:15:15;;;;;;;3.30;2.83;;;1.00;99.90;;;;;;4989231;28;20125;-75
2021/12/21 10:17:57;;;;;;;3.17;2.97;;;1.00;99.90;;;;;;4991817;28;20428;-75
2021/12/21 10:20:56;;;;;;;3.35;2.83;;;1.10;99.90;;;;;;4973316;28;20042;-75
2021/12/21 10:23:26;;;;;;;5.50;4.03;;;1.10;99.90;;;;;;4889169;28;20144;-75
2021/12/21 10:25:59;;;;;;;9.30;4.63;;;1.20;99.90;;;;;;4968504;28;20049;-75
2021/12/21 10:28:30;;;;;;;;;;;1.20;99.90;;;;;;4963668;28;20050;-75
2021/12/21 10:30:57;;;;;;;2.67;2.47;;;1.20;99.90;;;;;;4953136;28;20359;-75
2021/12/21 10:33:25;;;;;;;9.83;4.67;;;1.20;99.90;;;;;;4970662;28;20078;-75
2021/12/21 10:35:54;;;;;;;11.40;5.43;;;1.30;99.90;;;;;;4963258;28;20168;-76
2021/12/21 10:38:37;;;;;;;3.23;3.00;;;1.30;99.90;;;;;;5000065;28;20405;-75
2021/12/21 10:41:09;;;;;;;4.33;3.87;;;1.30;99.90;;;;;;4984791;28;20141;-76
2021/12/21 10:43:35;;;;;;;7.93;2.60;;;1.30;99.90;;;;;;4990374;28;20274;-76
2021/12/21 10:46:01;;;;;;;11.90;3.20;;;1.30;99.90;;;;;;4982251;28;20046;-76
2021/12/21 10:48:29;;;;;;;3.33;2.60;;;1.30;99.90;;;;;;4982516;28;20050;-76
2021/12/21 10:50:55;;;;;;;9.13;4.37;;;1.40;99.90;;;;;;4984878;28;20073;-75
2021/12/21 10:53:23;;;;;;;7.27;4.37;;;1.40;99.90;;;;;;4982520;28;20085;-73
2021/12/21 10:56:04;;;;;;;4.37;3.37;;;1.40;99.90;;;;;;4982792;28;20051;-73
2021/12/21 10:58:30;;;;;;;3.40;3.10;;;1.50;99.90;;;;;;4962652;28;20053;-73
2021/12/21 11:00:59;;;;;;;7.47;3.93;;;1.50;99.90;;;;;;4957275;28;20046;-73
2021/12/21 11:03:52;;;;;;;18.43;5.40;;;1.50;99.90;;;;;;4976946;28;20058;-73
2021/12/21 11:06:25;;;;;;;26.15;4.72;;;1.60;99.90;;;;;;4949944;28;20047;-72
2021/12/21 11:08:54;;;;;;;6.60;4.50;;;1.60;99.90;;;;;;4964380;28;20043;-74
2021/12/21 11:11:30;;;;;;;6.17;4.67;;;1.60;99.90;;;;;;4974320;28;20050;-74
2021/12/21 11:14:08;;;;;;;4.27;3.87;;;1.60;99.90;;;;;;4948394;28;20054;-74
2021/12/21 11:16:37;;;;;;;5.70;4.33;;;1.60;99.90;;;;;;4971753;28;20043;-74
2021/12/21 11:19:03;;;;;;;5.37;4.87;;;1.70;99.90;;;;;;4967317;28;20115;-74
2021/12/21 11:21:30;;;;;;;5.80;5.20;;;1.70;99.90;;;;;;4953190;28;20035;-75
2021/12/21 11:23:58;;;;;;;4.03;3.07;;;1.70;99.90;;;;;;4964249;28;20057;-74
2021/12/21 11:26:27;;;;;;;3.63;3.43;;;1.80;99.90;;;;;;4977517;28;20050;-73
2021/12/21 11:28:55;;;;;;;6.80;5.90;;;1.80;99.90;;;;;;4955637;28;20035;-74
2021/12/21 11:31:22;;;;;;;3.17;2.87;;;1.80;99.90;;;;;;4950864;28;20042;-73
2021/12/21 11:33:55;;;;;;;5.47;4.00;;;1.80;99.90;;;;;;4966610;28;20043;-74
2021/12/21 11:39:07;;;;;;;5.03;2.93;;;1.90;99.90;;;;;;4958901;28;20053;-74
2021/12/21 11:41:34;;;;;;;7.83;3.87;;;1.90;99.90;;;;;;4985784;28;20065;-74
2021/12/21 11:44:12;;;;;;;3.97;3.00;;;1.90;99.90;;;;;;4967053;28;20054;-74
2021/12/21 11:46:51;;;;;;;3.10;2.90;;;2.00;99.90;;;;;;4984348;28;20048;-73
2021/12/21 11:49:23;;;;;;;3.10;2.83;;;2.00;99.90;;;;;;4974015;28;20393;-74
2021/12/21 11:51:49;;;;;;;7.88;2.38;;;2.00;99.90;;;;;;4950002;28;20500;-74
2021/12/21 11:54:17;;;;;;;1.53;1.50;;;2.00;99.90;;;;;;4979159;28;20078;-75
2021/12/21 11:56:43;;;;;;;1.90;1.80;;;2.00;99.90;;;;;;4973634;28;20042;-73
2021/12/21 11:59:09;;;;;;;6.57;5.20;;;2.00;99.90;;;;;;4955822;28;20039;-74
2021/12/21 12:01:34;;;;;;;5.40;4.03;;;2.00;99.90;;;;;;4948222;28;20053;-73
2021/12/21 12:04:00;;;;;;;4.50;3.10;;;2.10;99.90;;;;;;4967256;28;20122;-74
2021/12/21 12:06:28;;;;;;;4.27;2.53;;;2.10;99.90;;;;;;4983339;28;20046;-73
2021/12/21 12:09:03;;;;;;;4.87;3.17;;;2.10;99.90;;;;;;4983128;28;20042;-74
2021/12/21 12:11:35;;;;;;;2.97;2.57;;;2.10;99.90;;;;;;4959244;28;20444;-73
2021/12/21 12:14:15;;;;;;;2.45;1.88;;;2.10;99.90;;;;;;4966045;28;20076;-74
2021/12/21 12:16:44;;;;;;;2.40;2.30;;;2.10;99.90;;;;;;4978787;28;20672;-76
2021/12/21 12:19:12;;;;;;;2.37;1.70;;;2.20;99.90;;;;;;4970518;28;20049;-78
2021/12/21 12:21:38;;;;;;;3.57;3.27;;;2.20;99.90;;;;;;4977414;28;20125;-79
2021/12/21 12:24:05;;;;;;;9.27;2.60;;;2.20;99.90;;;;;;4966893;28;20125;-79
2021/12/21 12:26:39;;;;;;;4.13;3.80;;;2.20;99.90;;;;;;4983897;28;20548;-76
2021/12/21 12:29:20;;;;;;;8.47;3.77;;;2.20;99.90;;;;;;4988584;28;20038;-75
2021/12/21 12:31:57;;;;;;;2.73;2.27;;;2.20;99.90;;;;;;4975391;28;20129;-76
2021/12/21 12:34:25;;;;;;;9.90;2.63;;;2.20;99.90;;;;;;4967155;28;20125;-75
2021/12/21 12:36:51;;;;;;;8.03;2.67;;;2.20;99.90;;;;;;4988802;28;20406;-75
2021/12/21 12:39:40;;;;;;;4.27;1.73;;;2.30;99.90;;;;;;4943994;28;20490;-75
2021/12/21 12:42:09;;;;;;;27.33;3.60;;;2.30;99.90;;;;;;4947233;28;20054;-74
2021/12/21 12:44:37;;;;;;;2.57;2.13;;;2.30;99.90;;;;;;4946911;28;20058;-74
2021/12/21 12:47:05;;;;;;;2.63;2.43;;;2.30;99.90;;;;;;4947036;28;20042;-75
2021/12/21 12:49:35;;;;;;;2.40;2.13;;;2.40;99.90;;;;;;4947461;28;20498;-75
2021/12/21 12:52:15;;;;;;;4.00;3.70;;;2.30;99.90;;;;;;4965090;28;20074;-75
2021/12/21 12:54:53;;;;;;;11.43;3.57;;;2.40;99.90;;;;;;4947378;28;20493;-75
2021/12/21 12:57:32;;;;;;;1.93;1.77;;;2.40;99.90;;;;;;4964518;28;20045;-74
2021/12/21 13:00:13;;;;;;;2.90;2.70;;;2.40;99.90;;;;;;4964698;28;20108;-74
2021/12/21 13:02:51;;;;;;;4.53;1.93;;;2.40;99.90;;;;;;4983404;28;20042;-79
2021/12/21 13:05:16;;;;;;;3.33;2.50;;;2.40;99.90;;;;;;4966534;28;20514;-74
2021/12/21 13:07:44;;;;;;;1.00;1.00;;;2.40;99.90;;;;;;4966593;28;20065;-75
2021/12/21 13:10:11;;;;;;;15.87;2.87;;;2.40;99.90;;;;;;4977032;28;20042;-74
2021/12/21 13:12:37;;;;;;;2.80;2.60;;;2.50;99.90;;;;;;4962158;28;20043;-72
2021/12/21 13:15:06;;;;;;;2.87;2.63;;;2.40;99.90;;;;;;4962303;28;20047;-72
2021/12/21 13:17:32;;;;;;;1.30;1.30;;;2.40;99.90;;;;;;4951703;28;20042;-72
2021/12/21 13:19:57;;;;;;;4.63;2.90;;;2.50;99.90;;;;;;4982188;28;20034;-73
2021/12/21 13:22:25;;;;;;;3.00;2.63;;;2.50;99.90;;;;;;4982516;28;20046;-72
2021/12/21 13:24:52;;;;;;;2.40;2.17;;;2.50;99.90;;;;;;4999626;28;20038;-73
2021/12/21 13:27:20;;;;;;;3.93;2.63;;;2.50;99.90;;;;;;4983645;28;20076;-73
2021/12/21 13:29:47;;;;;;;2.13;1.80;;;2.50;99.90;;;;;;4990965;28;20077;-72
2021/12/21 13:32:16;;;;;;;1.67;1.57;;;2.50;99.90;;;;;;4981690;28;20046;-75
2021/12/21 13:34:44;;;;;;;2.20;2.07;;;2.60;99.90;;;;;;4965173;28;20053;-74
2021/12/21 13:37:13;;;;;;;3.30;3.03;;;2.60;99.90;;;;;;4981861;28;20082;-73
2021/12/21 13:39:41;;;;;;;2.33;2.10;;;2.60;99.90;;;;;;4982308;28;20042;-72
2021/12/21 13:42:10;;;;;;;2.07;1.97;;;2.60;99.90;;;;;;4977793;28;20350;-73
2021/12/21 13:44:39;;;;;;;14.53;2.93;;;2.60;99.90;;;;;;4981794;28;20400;-73
2021/12/21 13:47:17;;;;;;;6.00;3.40;;;2.60;99.90;;;;;;4996712;28;20708;-73
2021/12/21 13:50:04;;;;;;;4.63;4.23;;;2.60;99.90;;;;;;4964767;28;20468;-73
2021/12/21 13:52:42;;;;;;;5.23;2.70;;;2.60;99.90;;;;;;4965266;28;20057;-73
2021/12/21 13:55:32;;;;;;;3.37;3.10;;;2.60;99.90;;;;;;4965256;28;20046;-73
2021/12/21 13:58:04;;;;;;;4.13;2.70;;;2.60;99.90;;;;;;4966623;28;20121;-73
2021/12/21 14:00:31;;;;;;;2.10;2.00;;;2.60;99.90;;;;;;4988241;28;20045;-73